Time;durP1;ratioP1;P1;durP2;ratioP2;P2;SDS_P1;SDS_P2;PMS_P1;PMS_P2;Temp;Humidity;BMP_temperature;BMP_pressure;BME280_temperature;BME280_humidity;BME280_pressure;Samples;Min_cycle;Max_cycle;Signal;HPM_P1;HPM_P2
2022/11/30 00:01:13;;;;;;;36.50;19.50;;;;;;;5.47;95.43;101397.44;104877;1304;61222;-75
2022/11/30 00:03:40;;;;;;;36.60;19.90;;;;;;;5.47;95.44;101401.45;104526;1290;61644;-75
2022/11/30 00:06:08;;;;;;;37.80;20.30;;;;;;;5.46;95.42;101402.92;104298;1294;73103;-76
2022/11/30 00:08:35;;;;;;;35.50;19.20;;;;;;;5.44;95.15;101406.04;104148;1295;69935;-75
2022/11/30 00:11:17;;;;;;;36.50;18.70;;;;;;;5.43;95.20;101407.94;104404;1295;71115;-74
2022/11/30 00:13:43;;;;;;;35.60;19.50;;;;;;;5.40;95.15;101408.47;104811;1295;61291;-76
2022/11/30 00:16:10;;;;;;;38.40;20.20;;;;;;;5.40;95.23;101409.95;104793;1290;61545;-76
2022/11/30 00:18:37;;;;;;;37.40;19.60;;;;;;;5.40;95.43;101411.11;104647;1294;59616;-76
2022/11/30 00:24:44;;;;;;;35.20;18.10;;;;;;;5.42;95.23;101412.05;104523;1295;72449;-75
2022/11/30 00:27:11;;;;;;;38.10;18.80;;;;;;;5.41;95.31;101408.25;104706;1295;59993;-76
2022/11/30 00:29:38;;;;;;;35.80;18.80;;;;;;;5.43;95.48;101406.65;105384;1294;59137;-76
2022/11/30 00:32:04;;;;;;;38.10;20.00;;;;;;;5.44;95.37;101407.13;104887;1293;61270;-76
2022/11/30 00:34:31;;;;;;;35.60;19.10;;;;;;;5.45;95.35;101404.08;104617;1298;61460;-75
2022/11/30 00:36:57;;;;;;;38.30;19.40;;;;;;;5.44;95.10;101406.58;104256;1295;60737;-76
2022/11/30 00:39:23;;;;;;;38.80;19.40;;;;;;;5.44;95.30;101406.05;104488;1302;61311;-75
2022/11/30 00:41:50;;;;;;;36.40;19.00;;;;;;;5.44;95.05;101405.56;103549;1302;61783;-74
2022/11/30 00:44:16;;;;;;;36.00;18.20;;;;;;;5.43;95.07;101409.11;104014;1301;61567;-75
2022/11/30 00:46:43;;;;;;;36.80;18.60;;;;;;;5.43;95.08;101408.64;104242;1297;62901;-76
2022/11/30 00:49:09;;;;;;;34.10;18.70;;;;;;;5.42;95.09;101409.38;104811;1294;59677;-76
2022/11/30 00:51:37;;;;;;;35.40;18.30;;;;;;;5.42;95.15;101404.46;103643;1292;61500;-77
2022/11/30 00:54:04;;;;;;;34.90;17.90;;;;;;;5.40;94.99;101406.89;104070;1296;61456;-76
2022/11/30 00:56:30;;;;;;;34.80;18.20;;;;;;;5.39;95.11;101404.23;104052;1301;59370;-76
2022/11/30 00:58:57;;;;;;;34.10;17.90;;;;;;;5.38;94.90;101403.77;104713;1293;61276;-75
2022/11/30 01:01:23;;;;;;;33.10;17.60;;;;;;;5.37;94.91;101402.10;103764;1294;61433;-75
2022/11/30 01:03:50;;;;;;;35.80;18.50;;;;;;;5.37;95.16;101404.75;103940;1294;59644;-75
2022/11/30 01:06:16;;;;;;;31.90;16.80;;;;;;;5.34;94.93;101401.63;104328;1299;61209;-75
2022/11/30 01:08:43;;;;;;;34.70;18.00;;;;;;;5.33;95.31;101404.00;104107;1293;61433;-76
2022/11/30 01:11:16;;;;;;;36.60;18.00;;;;;;;5.30;95.19;101403.45;103907;1300;61425;-75
2022/11/30 01:13:42;;;;;;;34.80;17.90;;;;;;;5.29;95.31;101402.86;104040;1294;71509;-76
2022/11/30 01:16:12;;;;;;;32.80;17.00;;;;;;;5.26;95.44;101400.81;103987;1287;61300;-75
2022/11/30 01:18:38;;;;;;;34.90;17.40;;;;;;;5.24;95.51;101403.97;103791;1301;61442;-75
2022/11/30 01:21:07;;;;;;;32.70;17.60;;;;;;;5.24;95.39;101404.85;103563;1301;61864;-75
2022/11/30 01:23:34;;;;;;;28.80;16.40;;;;;;;5.25;95.78;101406.05;104037;1294;69552;-75
2022/11/30 01:26:00;;;;;;;30.90;16.80;;;;;;;5.23;95.75;101407.92;104216;1298;72573;-75
2022/11/30 01:28:27;;;;;;;33.30;17.40;;;;;;;5.23;95.67;101410.41;103847;1298;61410;-74
2022/11/30 01:31:05;;;;;;;34.20;17.50;;;;;;;5.22;95.68;101410.77;104974;1297;58930;-75
2022/11/30 01:33:32;;;;;;;30.40;17.00;;;;;;;5.22;95.84;101405.04;104749;1295;72541;-74
2022/11/30 01:35:59;;;;;;;32.20;17.60;;;;;;;5.23;95.99;101403.54;104218;1301;71319;-75
2022/11/30 01:38:29;;;;;;;31.40;16.80;;;;;;;5.23;95.90;101401.98;104158;1294;71421;-76
2022/11/30 01:40:56;;;;;;;32.80;17.30;;;;;;;5.23;95.76;101405.65;104314;1298;59675;-76
2022/11/30 01:43:49;;;;;;;30.80;16.50;;;;;;;5.23;95.83;101407.77;104596;1297;60155;-77
2022/11/30 01:46:27;;;;;;;28.70;15.80;;;;;;;5.23;95.92;101411.98;104838;1297;74833;-77
2022/11/30 01:48:59;;;;;;;28.90;16.70;;;;;;;5.23;95.78;101415.27;104329;1296;70435;-77
2022/11/30 01:51:32;;;;;;;28.90;16.40;;;;;;;5.26;95.86;101419.95;103511;1304;71576;-78
2022/11/30 01:54:00;;;;;;;30.10;16.10;;;;;;;5.26;95.83;101419.58;103844;1289;61386;-76
2022/11/30 01:56:27;;;;;;;34.40;17.10;;;;;;;5.28;95.97;101417.69;104537;1298;59368;-76
2022/11/30 01:58:53;;;;;;;28.40;15.40;;;;;;;5.29;95.93;101418.84;104167;1302;73140;-76
2022/11/30 02:01:20;;;;;;;29.00;15.80;;;;;;;5.30;95.70;101418.79;104826;1293;61312;-75
2022/11/30 02:04:00;;;;;;;29.00;15.80;;;;;;;5.29;95.83;101416.53;104477;1294;61151;-76
2022/11/30 02:06:28;;;;;;;28.00;15.80;;;;;;;5.29;95.81;101414.08;104482;1293;61629;-77
2022/11/30 02:08:55;;;;;;;30.20;16.00;;;;;;;5.29;95.72;101410.55;103469;1294;61144;-76
2022/11/30 02:11:23;;;;;;;26.80;15.20;;;;;;;5.30;95.70;101411.05;103976;1295;73557;-76
2022/11/30 02:14:14;;;;;;;27.60;14.70;;;;;;;5.29;95.62;101409.55;104029;1297;71001;-75
2022/11/30 02:17:09;;;;;;;24.40;14.60;;;;;;;5.30;95.73;101412.23;104074;1300;72814;-76
2022/11/30 02:20:10;;;;;;;28.20;15.40;;;;;;;5.29;95.51;101415.30;104176;1295;61199;-76
2022/11/30 02:23:14;;;;;;;27.50;15.00;;;;;;;5.29;95.70;101417.95;103762;1301;61280;-75
2022/11/30 02:26:02;;;;;;;24.90;14.40;;;;;;;5.27;95.48;101418.27;104122;1292;73438;-76
2022/11/30 02:29:00;;;;;;;27.50;15.20;;;;;;;5.26;95.49;101418.88;103654;1301;69822;-76
2022/11/30 02:31:40;;;;;;;26.10;15.20;;;;;;;5.27;95.76;101414.80;104865;1290;71099;-76
2022/11/30 02:34:11;;;;;;;26.80;15.20;;;;;;;5.27;95.70;101412.66;104199;1302;61182;-77
2022/11/30 02:36:39;;;;;;;27.60;15.40;;;;;;;5.28;95.60;101410.18;104119;1294;61292;-76
2022/11/30 02:39:06;;;;;;;27.90;14.90;;;;;;;5.27;95.50;101408.11;103935;1300;73999;-76
2022/11/30 02:41:37;;;;;;;27.10;14.90;;;;;;;5.28;95.52;101406.14;104295;1297;70068;-76
2022/11/30 02:44:05;;;;;;;23.00;14.10;;;;;;;5.28;95.49;101406.14;103937;1296;71116;-76
2022/11/30 02:46:53;;;;;;;25.00;14.60;;;;;;;5.27;95.56;101406.57;103671;1294;59891;-75
2022/11/30 02:49:31;;;;;;;25.70;14.20;;;;;;;5.29;95.69;101406.20;104839;1301;61288;-76
2022/11/30 02:52:00;;;;;;;23.80;14.30;;;;;;;5.30;95.61;101405.77;104274;1301;73095;-77
2022/11/30 02:54:26;;;;;;;24.00;13.40;;;;;;;5.32;95.61;101404.03;104270;1300;70992;-77
2022/11/30 02:56:53;;;;;;;26.80;15.20;;;;;;;5.33;95.64;101406.10;103728;1295;59695;-76
2022/11/30 02:59:20;;;;;;;28.30;14.40;;;;;;;5.33;95.44;101408.73;104979;1295;60550;-75
2022/11/30 03:01:47;;;;;;;26.60;15.50;;;;;;;5.33;95.53;101410.31;104523;1288;61337;-77
2022/11/30 03:04:14;;;;;;;24.40;14.60;;;;;;;5.36;95.70;101415.55;103824;1295;75244;-75
2022/11/30 03:06:40;;;;;;;24.70;15.10;;;;;;;5.37;95.56;101412.96;103516;1301;61738;-76
2022/11/30 03:09:07;;;;;;;27.90;14.00;;;;;;;5.37;95.39;101413.82;103842;1300;61250;-76
2022/11/30 03:11:34;;;;;;;24.40;14.10;;;;;;;5.36;95.17;101420.77;104474;1300;61274;-76
2022/11/30 03:14:00;;;;;;;25.90;14.50;;;;;;;5.34;95.15;101419.17;104303;1298;59118;-76
2022/11/30 03:16:27;;;;;;;25.80;14.90;;;;;;;5.33;95.32;101422.06;103606;1301;73321;-76
2022/11/30 03:18:53;;;;;;;25.70;14.40;;;;;;;5.32;95.37;101423.31;104515;1300;61407;-76
2022/11/30 03:21:20;;;;;;;25.30;14.30;;;;;;;5.30;95.09;101425.73;104269;1284;61306;-76
2022/11/30 03:23:46;;;;;;;23.50;14.10;;;;;;;5.29;95.37;101426.02;103606;1293;61371;-76
2022/11/30 03:26:12;;;;;;;26.60;15.10;;;;;;;5.30;95.46;101426.09;103558;1302;61312;-76
2022/11/30 03:28:39;;;;;;;23.90;14.00;;;;;;;5.30;95.36;101422.46;104879;1296;61243;-77
2022/11/30 03:31:05;;;;;;;24.70;13.80;;;;;;;5.29;95.24;101421.83;105494;1293;59555;-76
2022/11/30 03:33:32;;;;;;;25.00;13.90;;;;;;;5.30;95.33;101424.91;104373;1295;59720;-77
2022/11/30 03:36:01;;;;;;;23.50;14.10;;;;;;;5.31;95.29;101423.41;103698;1304;61415;-77
2022/11/30 03:38:28;;;;;;;25.70;14.60;;;;;;;5.31;95.49;101429.36;104821;1290;61293;-75
2022/11/30 03:40:59;;;;;;;25.80;14.30;;;;;;;5.32;95.32;101429.83;104179;1300;73400;-76
2022/11/30 03:43:25;;;;;;;26.40;14.30;;;;;;;5.33;95.40;101433.08;103687;1302;69621;-75
2022/11/30 03:45:52;;;;;;;24.60;14.70;;;;;;;5.33;95.10;101435.73;103657;1300;61337;-75
2022/11/30 03:48:19;;;;;;;22.30;14.50;;;;;;;5.30;95.05;101434.67;104182;1297;61427;-75
2022/11/30 03:50:48;;;;;;;23.10;14.60;;;;;;;5.30;95.31;101433.85;104374;1295;60397;-76
2022/11/30 03:53:16;;;;;;;25.70;14.30;;;;;;;5.32;95.53;101437.36;103268;1301;73542;-75
2022/11/30 03:55:43;;;;;;;25.90;15.00;;;;;;;5.34;95.48;101437.20;103668;1300;69911;-75
2022/11/30 03:58:10;;;;;;;25.70;14.70;;;;;;;5.37;95.61;101435.92;105002;1300;71780;-76
2022/11/30 04:00:36;;;;;;;25.30;14.50;;;;;;;5.38;95.40;101437.29;104359;1292;61290;-76
2022/11/30 04:03:03;;;;;;;24.00;13.90;;;;;;;5.38;95.19;101439.05;103597;1297;61145;-76
2022/11/30 04:05:29;;;;;;;24.80;13.80;;;;;;;5.37;95.17;101440.54;103618;1301;73488;-76
2022/11/30 04:07:56;;;;;;;23.80;13.80;;;;;;;5.37;95.28;101440.73;104855;1300;72443;-76
2022/11/30 04:10:23;;;;;;;24.20;14.10;;;;;;;5.36;95.04;101442.55;103689;1291;61379;-75
2022/11/30 04:12:49;;;;;;;26.50;14.50;;;;;;;5.33;95.10;101445.70;103623;1300;61292;-75
2022/11/30 04:15:15;;;;;;;25.10;14.50;;;;;;;5.32;95.02;101443.84;103667;1300;61240;-75
2022/11/30 04:17:42;;;;;;;25.70;14.90;;;;;;;5.32;94.98;101449.85;104212;1301;61200;-75
2022/11/30 04:20:09;;;;;;;26.00;14.50;;;;;;;5.31;95.17;101452.70;103931;1302;61276;-75
2022/11/30 04:22:35;;;;;;;27.90;15.70;;;;;;;5.29;95.17;101454.58;103769;1302;61297;-76
2022/11/30 04:25:02;;;;;;;29.20;15.80;;;;;;;5.32;95.38;101457.41;104604;1295;61176;-75
2022/11/30 04:27:28;;;;;;;26.90;15.10;;;;;;;5.33;95.45;101465.05;104356;1299;59241;-75
2022/11/30 04:29:54;;;;;;;28.90;16.00;;;;;;;5.31;95.37;101463.39;103790;1302;60505;-76
2022/11/30 04:32:21;;;;;;;27.90;15.90;;;;;;;5.30;95.39;101466.27;105458;1288;59560;-76
2022/11/30 04:34:47;;;;;;;29.20;16.30;;;;;;;5.29;95.50;101467.73;103526;1301;61452;-75
2022/11/30 04:37:14;;;;;;;31.80;16.40;;;;;;;5.29;95.51;101465.32;104724;1295;61280;-76
2022/11/30 04:39:41;;;;;;;33.80;17.80;;;;;;;5.29;95.64;101459.71;103900;1298;61360;-75
2022/11/30 04:42:07;;;;;;;34.60;17.60;;;;;;;5.30;95.65;101461.92;104017;1285;61275;-75
2022/11/30 04:44:34;;;;;;;33.00;17.20;;;;;;;5.30;95.69;101461.55;104186;1290;59548;-76
2022/11/30 04:47:00;;;;;;;34.60;17.00;;;;;;;5.29;95.60;101456.02;104308;1295;58967;-76
2022/11/30 04:49:26;;;;;;;33.30;17.90;;;;;;;5.29;95.87;101454.75;103548;1300;61386;-76
2022/11/30 04:51:53;;;;;;;30.70;17.30;;;;;;;5.30;95.95;101459.58;103591;1294;61417;-76
2022/11/30 04:54:19;;;;;;;32.90;17.60;;;;;;;5.33;95.98;101463.98;103604;1305;61282;-76
2022/11/30 04:56:46;;;;;;;31.70;16.80;;;;;;;5.34;96.08;101466.02;104396;1302;59173;-76
2022/11/30 04:59:12;;;;;;;31.40;17.60;;;;;;;5.35;95.99;101470.70;104185;1293;59534;-76
2022/11/30 05:01:39;;;;;;;30.80;17.30;;;;;;;5.35;96.04;101469.27;104767;1294;59294;-76
2022/11/30 05:04:05;;;;;;;37.90;19.00;;;;;;;5.36;96.07;101472.35;103623;1288;59385;-76
2022/11/30 05:06:32;;;;;;;41.30;20.60;;;;;;;5.37;95.90;101471.75;104078;1301;61338;-76
2022/11/30 05:08:58;;;;;;;42.90;21.20;;;;;;;5.39;96.04;101468.44;103569;1302;61307;-75
2022/11/30 05:11:25;;;;;;;43.20;21.10;;;;;;;5.40;96.16;101472.53;103444;1289;61934;-78
2022/11/30 05:13:51;;;;;;;45.20;20.70;;;;;;;5.40;96.11;101469.36;103902;1296;61616;-76
2022/11/30 05:16:18;;;;;;;41.40;21.00;;;;;;;5.40;96.11;101472.38;105004;1287;59511;-77
2022/11/30 05:18:44;;;;;;;47.70;21.90;;;;;;;5.40;96.05;101472.19;104643;1300;61356;-77
2022/11/30 05:21:11;;;;;;;43.30;21.60;;;;;;;5.39;95.97;101475.42;103617;1300;59404;-77
2022/11/30 05:23:37;;;;;;;46.70;21.20;;;;;;;5.39;96.12;101477.92;103950;1302;61365;-77
2022/11/30 05:26:04;;;;;;;43.30;22.40;;;;;;;5.39;95.96;101483.52;104047;1293;61243;-77
2022/11/30 05:28:30;;;;;;;40.70;20.30;;;;;;;5.39;96.13;101484.04;104139;1296;61352;-77
2022/11/30 05:31:02;;;;;;;42.40;21.10;;;;;;;5.39;95.98;101487.92;104005;1294;61324;-77
2022/11/30 05:33:29;;;;;;;41.90;20.30;;;;;;;5.38;96.30;101489.85;104026;1301;69744;-77
2022/11/30 05:35:55;;;;;;;42.40;20.40;;;;;;;5.37;96.17;101488.19;104210;1301;61827;-76
2022/11/30 05:38:22;;;;;;;40.00;20.30;;;;;;;5.35;96.09;101487.48;104172;1302;61186;-77
2022/11/30 05:40:48;;;;;;;40.10;18.90;;;;;;;5.34;96.17;101487.61;103544;1294;61387;-77
2022/11/30 05:43:15;;;;;;;38.10;19.60;;;;;;;5.32;96.26;101495.95;104389;1295;59487;-76
2022/11/30 05:45:41;;;;;;;39.50;19.20;;;;;;;5.33;96.50;101492.20;104128;1301;61626;-77
2022/11/30 05:48:08;;;;;;;40.20;20.30;;;;;;;5.33;96.51;101495.88;103949;1298;61382;-76
2022/11/30 05:50:34;;;;;;;39.90;20.10;;;;;;;5.33;96.51;101502.41;103304;1287;61417;-76
2022/11/30 05:53:01;;;;;;;42.50;20.30;;;;;;;5.31;96.32;101506.91;104116;1296;59458;-76
2022/11/30 05:55:28;;;;;;;43.10;21.10;;;;;;;5.27;96.12;101510.71;104369;1296;61248;-77
2022/11/30 05:57:54;;;;;;;44.90;21.20;;;;;;;5.25;96.20;101508.21;103927;1293;71152;-77
2022/11/30 06:00:21;;;;;;;39.80;19.10;;;;;;;5.26;96.56;101508.88;103469;1301;61937;-76
2022/11/30 06:02:47;;;;;;;39.70;20.00;;;;;;;5.25;96.43;101511.94;104136;1301;61153;-76
2022/11/30 06:05:14;;;;;;;38.30;19.90;;;;;;;5.22;96.50;101511.97;103659;1301;62087;-76
2022/11/30 06:07:41;;;;;;;41.00;20.90;;;;;;;5.21;96.61;101514.41;103406;1302;74430;-77
2022/11/30 06:10:08;;;;;;;41.00;21.00;;;;;;;5.20;96.82;101510.20;103569;1302;70225;-77
2022/11/30 06:12:34;;;;;;;37.40;20.10;;;;;;;5.21;96.73;101513.68;104221;1300;71114;-77
2022/11/30 06:15:01;;;;;;;37.70;19.30;;;;;;;5.19;96.62;101512.72;104120;1285;61353;-77
2022/11/30 06:17:27;;;;;;;40.10;19.80;;;;;;;5.19;96.71;101508.92;103663;1302;61296;-76
2022/11/30 06:19:53;;;;;;;42.50;20.10;;;;;;;5.18;96.85;101506.15;103719;1302;61346;-76
2022/11/30 06:22:20;;;;;;;40.20;20.20;;;;;;;5.18;96.83;101510.70;103967;1293;61454;-77
2022/11/30 06:24:46;;;;;;;39.00;20.10;;;;;;;5.20;96.98;101512.01;103678;1302;61819;-76
2022/11/30 06:27:13;;;;;;;38.90;20.50;;;;;;;5.21;96.84;101512.93;103700;1303;61375;-76
2022/11/30 06:29:39;;;;;;;37.60;19.90;;;;;;;5.24;97.07;101514.98;104220;1294;62014;-77
2022/11/30 06:32:07;;;;;;;38.00;20.40;;;;;;;5.26;96.85;101515.19;103904;1302;222443;-77
2022/11/30 06:34:33;;;;;;;39.30;19.90;;;;;;;5.28;97.02;101517.16;103964;1295;71736;-77
2022/11/30 06:36:59;;;;;;;37.70;19.70;;;;;;;5.29;97.06;101523.37;103727;1300;61337;-76
2022/11/30 06:39:26;;;;;;;38.10;20.40;;;;;;;5.30;96.94;101527.14;103782;1303;59337;-77
2022/11/30 06:42:12;;;;;;;39.70;19.70;;;;;;;5.31;96.85;101530.06;103739;1293;62264;-76
2022/11/30 06:44:39;;;;;;;36.60;20.10;;;;;;;5.32;97.00;101529.80;104209;1292;62748;-77
2022/11/30 06:47:05;;;;;;;37.60;19.90;;;;;;;5.34;96.66;101534.78;104016;1295;61249;-78
2022/11/30 06:49:32;;;;;;;41.90;20.50;;;;;;;5.33;96.74;101539.73;104611;1295;59114;-77
2022/11/30 06:51:58;;;;;;;40.80;21.50;;;;;;;5.33;96.68;101539.36;103784;1301;61395;-77
2022/11/30 06:54:24;;;;;;;42.80;21.60;;;;;;;5.32;96.43;101542.42;103793;1294;61402;-77
2022/11/30 06:56:51;;;;;;;42.60;22.80;;;;;;;5.30;96.41;101543.23;103421;1299;61801;-77
2022/11/30 06:59:17;;;;;;;40.70;20.80;;;;;;;5.32;96.68;101544.39;104165;1296;61374;-73
2022/11/30 07:01:44;;;;;;;44.90;22.10;;;;;;;5.33;96.93;101546.27;104005;1294;61388;-73
2022/11/30 07:04:10;;;;;;;43.10;21.90;;;;;;;5.34;96.92;101549.48;103922;1295;59502;-73
2022/11/30 07:06:37;;;;;;;45.70;22.90;;;;;;;5.36;96.85;101552.14;104234;1291;59659;-73
2022/11/30 07:09:03;;;;;;;41.10;21.50;;;;;;;5.40;96.85;101552.73;104760;1292;61399;-73
2022/11/30 07:11:31;;;;;;;41.10;21.00;;;;;;;5.43;96.81;101557.02;103320;1301;61507;-73
2022/11/30 07:13:57;;;;;;;46.20;23.10;;;;;;;5.44;96.82;101560.79;103236;1302;72500;-74
2022/11/30 07:16:24;;;;;;;43.50;22.00;;;;;;;5.43;96.66;101560.85;102992;1302;61718;-73
2022/11/30 07:18:50;;;;;;;46.10;21.80;;;;;;;5.43;96.50;101563.71;103535;1293;61200;-73
2022/11/30 07:21:16;;;;;;;46.00;22.60;;;;;;;5.42;96.58;101564.64;103972;1291;61411;-73
2022/11/30 07:26:28;;;;;;;50.70;24.40;;;;;;;5.43;96.58;101571.96;102901;1301;71159;-72
2022/11/30 07:28:57;;;;;;;46.50;22.70;;;;;;;5.45;96.68;101573.16;104089;1292;60345;-73
2022/11/30 07:31:29;;;;;;;47.20;23.00;;;;;;;5.48;96.82;101577.85;102972;1298;61556;-72
2022/11/30 07:33:57;;;;;;;47.40;22.70;;;;;;;5.50;96.58;101575.92;103135;1293;74960;-73
2022/11/30 07:36:25;;;;;;;45.20;22.90;;;;;;;5.51;96.59;101579.23;103282;1302;69694;-73
2022/11/30 07:38:52;;;;;;;50.00;22.80;;;;;;;5.51;96.35;101578.52;103763;1296;72037;-73
2022/11/30 07:41:18;;;;;;;48.80;24.20;;;;;;;5.51;96.51;101577.80;103806;1292;61752;-73
2022/11/30 07:43:45;;;;;;;50.80;24.10;;;;;;;5.52;96.56;101580.66;103898;1294;62146;-71
2022/11/30 07:46:13;;;;;;;48.50;23.00;;;;;;;5.56;96.60;101579.50;103321;1301;61216;-72
2022/11/30 07:48:40;;;;;;;55.60;25.20;;;;;;;5.55;96.31;101578.73;103515;1295;71182;-73
2022/11/30 07:51:11;;;;;;;52.30;24.30;;;;;;;5.56;96.57;101582.83;102810;1288;71673;-73
2022/11/30 07:53:38;;;;;;;55.00;25.10;;;;;;;5.57;96.31;101584.70;103158;1294;61759;-73
2022/11/30 07:56:07;;;;;;;50.40;24.20;;;;;;;5.56;96.37;101586.00;103334;1295;61197;-73
2022/11/30 07:58:34;;;;;;;51.00;24.60;;;;;;;5.56;96.50;101586.15;104247;1294;75078;-72
2022/11/30 08:01:06;;;;;;;51.40;24.70;;;;;;;5.55;96.33;101586.43;103250;1294;61285;-73
2022/11/30 08:03:33;;;;;;;53.30;25.20;;;;;;;5.54;96.38;101587.09;102938;1301;72509;-73
2022/11/30 08:06:26;;;;;;;51.20;24.40;;;;;;;5.55;96.55;101587.31;103581;1294;61328;-73
2022/11/30 08:08:55;;;;;;;50.80;24.40;;;;;;;5.57;96.58;101589.81;103026;1294;61155;-73
2022/11/30 08:11:27;;;;;;;52.30;25.00;;;;;;;5.58;96.51;101588.98;103134;1300;74431;-72
2022/11/30 08:13:54;;;;;;;52.50;24.80;;;;;;;5.62;96.82;101589.56;103831;1300;71035;-73
2022/11/30 08:16:23;;;;;;;53.90;26.40;;;;;;;5.63;96.62;101585.44;103761;1300;61303;-73
2022/11/30 08:18:50;;;;;;;52.90;25.40;;;;;;;5.65;96.62;101584.07;103205;1301;61194;-73
2022/11/30 08:21:19;;;;;;;52.10;24.40;;;;;;;5.67;96.65;101582.34;103318;1294;61597;-73
2022/11/30 08:23:48;;;;;;;51.80;24.90;;;;;;;5.70;96.74;101586.80;103237;1291;72863;-73
2022/11/30 08:26:27;;;;;;;52.80;25.00;;;;;;;5.74;96.58;101588.98;103817;1304;69330;-73
2022/11/30 08:28:55;;;;;;;56.10;26.20;;;;;;;5.75;96.68;101594.13;102981;1294;71724;-73
2022/11/30 08:31:29;;;;;;;58.30;26.80;;;;;;;5.79;96.74;101592.50;103675;1301;61397;-72
2022/11/30 08:34:01;;;;;;;52.00;24.80;;;;;;;5.80;96.43;101600.96;104012;1295;61394;-72
2022/11/30 08:36:29;;;;;;;57.30;27.10;;;;;;;5.80;96.35;101599.05;103413;1296;73466;-73
2022/11/30 08:38:57;;;;;;;59.40;27.70;;;;;;;5.81;96.39;101595.63;103504;1303;68803;-73
2022/11/30 08:41:24;;;;;;;54.40;27.30;;;;;;;5.85;96.58;101600.72;102870;1301;71104;-72
2022/11/30 08:43:51;;;;;;;57.40;27.00;;;;;;;5.88;96.26;101598.63;103508;1301;60980;-72
2022/11/30 08:46:21;;;;;;;57.30;26.70;;;;;;;5.89;96.35;101610.94;102989;1294;62176;-73
2022/11/30 08:49:08;;;;;;;53.90;25.60;;;;;;;5.90;96.00;101610.01;103187;1302;75810;-72
2022/11/30 08:51:54;;;;;;;52.60;24.90;;;;;;;5.91;96.16;101613.98;102997;1301;70187;-71
2022/11/30 08:54:44;;;;;;;54.60;25.90;;;;;;;5.91;96.15;101615.32;103406;1297;73603;-72
2022/11/30 08:57:18;;;;;;;53.10;25.90;;;;;;;5.91;96.05;101619.75;103977;1293;62110;-72
2022/11/30 08:59:45;;;;;;;54.60;25.30;;;;;;;5.92;96.28;101621.77;102816;1301;62180;-73
2022/11/30 09:02:18;;;;;;;51.50;24.90;;;;;;;5.96;96.29;101626.40;103492;1301;73464;-73
2022/11/30 09:04:47;;;;;;;50.30;24.60;;;;;;;5.97;96.19;101628.46;103363;1294;69939;-72
2022/11/30 09:07:14;;;;;;;51.90;24.80;;;;;;;5.97;96.04;101630.89;103045;1294;72122;-72
2022/11/30 09:09:40;;;;;;;51.90;24.50;;;;;;;5.99;96.26;101629.32;103438;1285;62218;-72
2022/11/30 09:12:07;;;;;;;56.50;26.30;;;;;;;6.02;96.10;101631.39;103356;1300;61146;-72
2022/11/30 09:14:34;;;;;;;58.10;26.40;;;;;;;6.03;96.04;101637.95;103496;1295;62098;-72
2022/11/30 09:17:01;;;;;;;56.50;26.60;;;;;;;6.06;95.96;101637.55;103342;1295;62200;-71
2022/11/30 09:19:27;;;;;;;55.70;25.40;;;;;;;6.08;96.10;101638.81;103101;1298;71614;-71
2022/11/30 09:21:53;;;;;;;54.10;26.30;;;;;;;6.09;95.66;101639.74;103694;1301;62651;-72
2022/11/30 09:24:20;;;;;;;55.20;25.90;;;;;;;6.09;95.62;101639.44;103612;1294;62202;-72
2022/11/30 09:26:47;;;;;;;52.80;25.00;;;;;;;6.10;95.81;101644.20;103012;1295;62172;-73
2022/11/30 09:29:13;;;;;;;55.30;25.90;;;;;;;6.12;95.67;101645.34;103185;1278;62273;-72
2022/11/30 09:31:39;;;;;;;59.20;26.70;;;;;;;6.14;95.64;101642.71;103891;1293;63418;-72
2022/11/30 09:34:06;;;;;;;54.50;25.30;;;;;;;6.16;95.69;101643.45;103305;1299;62127;-72
2022/11/30 09:36:32;;;;;;;56.50;26.20;;;;;;;6.14;95.45;101643.58;103477;1294;62221;-72
2022/11/30 09:38:59;;;;;;;55.60;26.90;;;;;;;6.12;95.46;101641.81;103188;1295;62026;-72
2022/11/30 09:41:52;;;;;;;58.30;26.30;;;;;;;6.12;95.48;101639.84;103527;1295;62200;-72
2022/11/30 09:44:24;;;;;;;55.20;26.00;;;;;;;6.14;95.51;101635.86;103367;1294;72666;-72
2022/11/30 09:47:12;;;;;;;54.90;26.20;;;;;;;6.15;95.68;101630.16;103168;1292;62096;-72
2022/11/30 09:49:43;;;;;;;54.90;25.70;;;;;;;6.16;95.36;101626.98;103239;1293;61994;-75
2022/11/30 09:52:16;;;;;;;53.70;25.80;;;;;;;6.15;95.36;101630.38;103803;1301;73913;-72
2022/11/30 09:54:44;;;;;;;54.10;25.60;;;;;;;6.14;95.44;101632.51;103952;1299;70567;-73
2022/11/30 09:57:25;;;;;;;56.90;26.10;;;;;;;6.14;95.37;101631.98;103033;1294;71542;-73
2022/11/30 10:00:05;;;;;;;55.10;25.10;;;;;;;6.16;95.81;101629.39;103723;1300;62516;-72
2022/11/30 10:02:37;;;;;;;58.30;26.90;;;;;;;6.17;95.56;101628.43;103482;1295;62195;-73
2022/11/30 10:05:20;;;;;;;55.20;25.60;;;;;;;6.19;95.64;101626.00;103156;1302;75767;-73
2022/11/30 10:07:54;;;;;;;52.00;25.40;;;;;;;6.21;95.66;101625.66;103266;1302;70226;-73
2022/11/30 10:10:30;;;;;;;53.50;24.50;;;;;;;6.23;95.79;101624.45;103355;1294;71515;-73
2022/11/30 10:13:08;;;;;;;51.50;25.40;;;;;;;6.25;95.83;101626.02;103611;1302;62090;-73
2022/11/30 10:15:50;;;;;;;58.80;25.80;;;;;;;6.29;95.78;101628.68;102730;1294;62115;-72
2022/11/30 10:18:39;;;;;;;52.40;24.80;;;;;;;6.31;95.34;101624.96;103015;1285;75569;-73
2022/11/30 10:21:21;;;;;;;55.50;25.00;;;;;;;6.31;95.25;101630.29;104028;1301;70878;-71
2022/11/30 10:23:57;;;;;;;59.20;25.90;;;;;;;6.31;95.27;101626.95;103003;1292;71136;-73
2022/11/30 10:26:36;;;;;;;57.70;26.60;;;;;;;6.30;95.27;101628.03;102924;1295;62093;-73
2022/11/30 10:29:40;;;;;;;59.80;27.10;;;;;;;6.31;95.28;101629.42;103014;1304;62095;-72
2022/11/30 10:32:18;;;;;;;57.20;25.80;;;;;;;6.30;95.26;101626.11;103651;1297;75309;-73
2022/11/30 10:34:53;;;;;;;57.80;26.70;;;;;;;6.30;95.35;101624.75;103199;1297;71196;-73
2022/11/30 10:37:38;;;;;;;54.50;26.10;;;;;;;6.31;95.33;101622.38;102955;1293;72451;-73
2022/11/30 10:40:13;;;;;;;59.20;26.80;;;;;;;6.33;95.31;101627.70;103898;1301;62179;-73
2022/11/30 10:42:49;;;;;;;53.00;25.60;;;;;;;6.33;95.37;101629.80;103202;1302;61974;-73
2022/11/30 10:45:20;;;;;;;56.40;26.90;;;;;;;6.33;95.43;101624.84;103034;1301;74512;-72
2022/11/30 10:47:57;;;;;;;55.70;26.00;;;;;;;6.32;95.41;101624.25;103732;1302;70552;-72
2022/11/30 10:50:27;;;;;;;55.60;24.90;;;;;;;6.31;95.27;101624.98;103152;1302;72517;-72
2022/11/30 10:52:57;;;;;;;56.50;25.70;;;;;;;6.29;95.30;101624.98;103246;1294;62262;-73
2022/11/30 10:55:27;;;;;;;58.60;26.50;;;;;;;6.27;95.58;101623.38;103106;1301;61981;-73
2022/11/30 10:58:16;;;;;;;58.80;26.90;;;;;;;6.27;95.45;101621.30;104431;1291;75748;-73
2022/11/30 11:01:03;;;;;;;63.40;26.50;;;;;;;6.27;95.48;101626.38;103187;1302;69710;-72
2022/11/30 11:03:30;;;;;;;60.30;27.30;;;;;;;6.27;95.68;101624.32;102843;1295;71111;-74
2022/11/30 11:06:12;;;;;;;59.40;27.70;;;;;;;6.26;95.60;101627.02;103421;1294;62153;-74
2022/11/30 11:08:41;;;;;;;56.40;26.30;;;;;;;6.23;95.51;101631.30;103668;1295;62042;-73
2022/11/30 11:11:33;;;;;;;58.00;27.10;;;;;;;6.22;95.61;101634.22;103210;1295;75353;-73
2022/11/30 11:14:18;;;;;;;63.70;27.20;;;;;;;6.19;95.76;101636.91;102744;1297;70900;-73
2022/11/30 11:16:52;;;;;;;66.40;27.40;;;;;;;6.20;96.08;101638.60;104316;1294;70355;-72
2022/11/30 11:19:37;;;;;;;56.40;26.70;;;;;;;6.19;96.00;101641.44;103876;1292;62165;-74
2022/11/30 11:22:16;;;;;;;57.20;26.30;;;;;;;6.19;95.90;101642.34;102775;1295;62203;-74
2022/11/30 11:24:44;;;;;;;59.30;26.20;;;;;;;6.19;95.86;101644.84;103631;1287;73941;-72
2022/11/30 11:27:27;;;;;;;58.10;26.00;;;;;;;6.20;96.19;101649.13;103478;1301;69605;-72
2022/11/30 11:30:03;;;;;;;59.20;26.40;;;;;;;6.20;95.95;101652.08;102976;1300;72228;-72